createdAt,value
2023-01-21T03:06:56.933Z,0.00
2023-01-21T03:08:00.568Z,0.00
2023-01-21T03:09:14.134Z,0.00
2023-01-21T03:10:18.595Z,0.00
2023-01-21T03:11:26.404Z,0.00
2023-01-21T03:14:03.349Z,0.00
2023-01-21T03:15:07.614Z,0.00
2023-01-21T03:16:13.104Z,0.00
2023-01-21T03:17:33.073Z,0.00
2023-01-21T03:20:02.370Z,0.00
2023-01-21T03:21:07.182Z,0.00
2023-01-21T03:22:24.899Z,0.00
2023-01-21T03:23:31.341Z,0.00
2023-01-21T03:24:35.336Z,0.00
2023-01-21T03:26:59.675Z,0.00
2023-01-21T03:28:03.411Z,0.00
2023-01-21T03:29:08.247Z,0.00
2023-01-21T03:31:44.792Z,0.00
2023-01-21T03:34:20.038Z,0.00
2023-01-21T03:35:36.542Z,0.00
2023-01-21T03:36:47.776Z,0.00
2023-01-21T03:39:21.298Z,0.00
2023-01-21T03:41:44.822Z,0.00
2023-01-21T03:42:50.126Z,0.00
2023-01-21T03:43:53.031Z,0.00
2023-01-21T03:44:56.322Z,0.00
2023-01-21T03:45:59.504Z,0.00
2023-01-21T03:47:08.734Z,0.00
2023-01-21T03:49:32.412Z,0.00
2023-01-21T03:51:56.134Z,0.00
2023-01-21T04:05:00.175Z,0.00
2023-01-21T04:06:07.581Z,0.00
2023-01-21T04:07:11.395Z,0.00
2023-01-21T04:08:14.573Z,0.00
2023-01-21T04:09:18.045Z,0.00
2023-01-21T04:10:22.165Z,0.00
2023-01-21T04:11:26.842Z,0.00
2023-01-21T04:12:37.654Z,0.00
2023-01-21T04:13:41.748Z,0.00
2023-01-21T04:14:51.484Z,0.00
2023-01-21T04:15:55.455Z,0.00
2023-01-21T04:17:03.373Z,0.00
2023-01-21T04:18:15.048Z,0.00
2023-01-21T04:19:19.901Z,0.00
2023-01-21T04:21:58.205Z,0.00
2023-01-21T04:23:08.951Z,0.00
2023-01-21T04:24:17.457Z,0.00
2023-01-21T04:25:27.694Z,0.00
2023-01-21T04:26:33.146Z,0.00
2023-01-21T04:27:41.403Z,0.00
2023-01-21T04:28:46.315Z,0.00
2023-01-21T04:29:52.955Z,0.00
2023-01-21T04:31:02.374Z,0.00
2023-01-21T04:32:07.047Z,0.00
2023-01-21T04:33:14.871Z,0.00
2023-01-21T04:34:19.866Z,0.00
2023-01-21T04:35:23.484Z,0.00
2023-01-21T04:36:27.686Z,0.00
2023-01-21T04:37:32.325Z,0.00
2023-01-21T04:38:47.420Z,0.00
2023-01-21T04:39:59.370Z,0.00
2023-01-21T04:41:06.529Z,0.00
2023-01-21T04:43:30.896Z,0.00
2023-01-21T04:44:34.705Z,0.00
2023-01-21T04:45:38.232Z,0.00
2023-01-21T04:46:48.442Z,0.00
2023-01-21T04:47:54.800Z,0.00
2023-01-21T04:49:04.031Z,0.00
2023-01-21T04:50:09.156Z,0.00
2023-01-21T04:51:14.625Z,0.00
2023-01-21T04:52:19.125Z,0.00
2023-01-21T04:53:23.015Z,0.00
2023-01-21T04:54:32.431Z,0.00
2023-01-21T04:55:36.872Z,0.00
2023-01-21T04:56:49.005Z,0.00
2023-01-21T04:57:58.974Z,0.00
2023-01-21T04:59:03.230Z,0.00
2023-01-21T05:00:17.966Z,0.00
2023-01-21T05:01:22.551Z,0.00
2023-01-21T05:02:26.627Z,0.00
2023-01-21T05:03:30.168Z,0.00
2023-01-21T05:04:35.668Z,0.00
2023-01-21T05:05:39.446Z,0.00
2023-01-21T05:06:43.140Z,0.00
2023-01-21T05:07:47.047Z,0.00
2023-01-21T05:08:55.282Z,0.00
2023-01-21T05:10:00.161Z,0.00
2023-01-21T05:11:04.121Z,0.00
2023-01-21T05:12:10.682Z,0.00
2023-01-21T05:14:40.682Z,0.00
2023-01-21T05:15:44.509Z,0.00
2023-01-21T05:16:48.827Z,0.00
2023-01-21T05:18:00.536Z,0.00
2023-01-21T05:19:05.149Z,0.00
2023-01-21T05:20:08.865Z,0.00
2023-01-21T05:21:12.477Z,0.00
2023-01-21T05:22:16.750Z,0.00
2023-01-21T05:23:21.169Z,0.00
2023-01-21T05:24:28.427Z,0.00
2023-01-21T05:25:32.666Z,0.00
2023-01-21T05:26:36.469Z,0.00
2023-01-21T05:27:40.356Z,0.00
2023-01-21T05:28:50.273Z,0.00
2023-01-21T05:29:53.513Z,0.00
2023-01-21T05:30:58.192Z,0.00
2023-01-21T05:32:06.490Z,0.00
2023-01-21T05:33:11.034Z,0.00
2023-01-21T05:34:14.802Z,0.00
2023-01-21T05:35:18.110Z,0.00
2023-01-21T05:36:24.943Z,0.00
2023-01-21T05:37:28.752Z,0.00
2023-01-21T05:38:32.251Z,0.00
2023-01-21T05:39:35.538Z,0.00
2023-01-21T05:40:39.477Z,0.00
2023-01-21T05:41:42.778Z,0.00
2023-01-21T05:42:45.680Z,0.00
2023-01-21T05:43:48.768Z,0.00
2023-01-21T05:44:55.114Z,0.00
2023-01-21T05:46:01.312Z,0.00
2023-01-21T05:47:07.946Z,0.00
2023-01-21T05:48:11.545Z,0.00
2023-01-21T05:49:16.235Z,0.00
2023-01-21T05:50:20.169Z,0.00
2023-01-21T05:51:23.521Z,0.00
2023-01-21T05:52:27.028Z,0.00
2023-01-21T05:53:30.719Z,0.00
2023-01-21T05:54:33.977Z,0.00
2023-01-21T05:55:38.863Z,0.00
2023-01-21T05:56:42.581Z,0.00
2023-01-21T05:57:47.725Z,0.00
2023-01-21T05:58:53.392Z,0.00
2023-01-21T05:59:59.248Z,0.00
2023-01-21T06:01:04.647Z,0.00
2023-01-21T06:02:08.234Z,0.00
2023-01-21T06:03:12.667Z,0.00
2023-01-21T06:04:16.800Z,0.00
2023-01-21T06:05:20.661Z,0.00
2023-01-21T06:06:24.539Z,0.00
2023-01-21T06:07:28.792Z,0.00
2023-01-21T06:08:32.790Z,0.00
2023-01-21T06:09:36.548Z,0.00
2023-01-21T06:10:40.669Z,0.00
2023-01-21T06:11:45.197Z,0.00
2023-01-21T06:12:48.744Z,0.00
2023-01-21T06:13:53.283Z,0.00
2023-01-21T06:14:57.837Z,0.00
2023-01-21T06:16:02.275Z,0.00
2023-01-21T06:17:06.089Z,0.00
2023-01-21T06:18:12.661Z,0.00
2023-01-21T06:19:17.574Z,0.00
2023-01-21T06:20:21.726Z,0.00
2023-01-21T06:22:42.398Z,0.00
2023-01-21T06:23:55.495Z,0.00
2023-01-21T06:25:00.431Z,0.00
2023-01-21T06:26:14.139Z,0.50
2023-01-21T06:27:17.436Z,0.50
2023-01-21T06:28:23.594Z,0.00
2023-01-21T06:29:30.479Z,0.00
2023-01-21T06:32:00.513Z,0.00
2023-01-21T06:33:11.582Z,0.00
2023-01-21T06:34:26.407Z,0.00
2023-01-21T06:35:30.497Z,0.00
2023-01-21T06:36:35.524Z,0.00
2023-01-21T06:37:45.672Z,0.00
2023-01-21T06:38:55.707Z,0.00
2023-01-21T06:39:59.289Z,0.00
2023-01-21T06:41:03.197Z,0.00
2023-01-21T06:42:10.469Z,0.00
2023-01-21T06:43:19.894Z,0.00
2023-01-21T06:44:26.403Z,0.00
2023-01-21T06:45:43.709Z,0.00
2023-01-21T06:47:00.143Z,0.00
2023-01-21T06:47:54.068Z,0.00
2023-01-21T06:49:06.253Z,0.00
2023-01-21T06:50:11.161Z,0.00
2023-01-21T06:51:14.808Z,0.00
2023-01-21T06:52:20.164Z,0.00
2023-01-21T06:53:28.166Z,0.00
2023-01-21T06:54:36.392Z,0.00
2023-01-21T06:55:46.926Z,0.00
2023-01-21T06:56:52.130Z,0.00
2023-01-21T06:57:58.527Z,0.00
2023-01-21T06:59:02.473Z,0.00
2023-01-21T07:00:19.500Z,0.00
2023-01-21T07:01:24.810Z,0.00
2023-01-21T07:02:28.248Z,0.50
2023-01-21T07:03:32.143Z,0.50
2023-01-21T07:04:39.795Z,0.50
2023-01-21T07:05:43.325Z,0.00
2023-01-21T07:08:11.447Z,1.50
2023-01-21T07:09:17.577Z,0.50
2023-01-21T07:10:21.871Z,0.25
2023-01-21T07:11:25.435Z,0.00
2023-01-21T07:12:30.478Z,0.00
2023-01-21T07:13:38.978Z,0.00
2023-01-21T07:14:42.384Z,0.00
2023-01-21T07:15:46.617Z,0.00
2023-01-21T07:16:54.601Z,0.00
2023-01-21T07:18:06.283Z,0.00
2023-01-21T07:20:31.242Z,0.00
2023-01-21T07:21:42.230Z,0.00
2023-01-21T07:22:51.256Z,0.00
2023-01-21T07:27:50.135Z,0.00
2023-01-21T07:28:53.316Z,0.00
2023-01-21T07:29:57.832Z,0.00
2023-01-21T07:31:01.180Z,0.00
2023-01-21T07:32:06.053Z,0.00
2023-01-21T07:33:09.513Z,0.00
2023-01-21T07:34:17.108Z,0.00
2023-01-21T07:35:20.321Z,0.00
2023-01-21T07:36:26.252Z,0.00
2023-01-21T07:37:34.538Z,0.00
2023-01-21T07:38:45.209Z,0.00
2023-01-21T07:39:52.561Z,0.00
2023-01-21T07:40:59.131Z,0.00
2023-01-21T07:42:03.970Z,0.00
2023-01-21T07:43:11.976Z,0.00
2023-01-21T07:44:15.778Z,0.00
2023-01-21T07:45:21.199Z,0.00
2023-01-21T07:46:29.022Z,0.00
2023-01-21T07:47:37.221Z,0.00
2023-01-21T07:48:41.334Z,0.00
2023-01-21T07:49:52.767Z,0.00
2023-01-21T07:50:55.961Z,0.00
2023-01-21T07:52:04.191Z,0.00
2023-01-21T07:53:08.127Z,0.00
2023-01-21T07:54:11.834Z,0.00
2023-01-21T07:55:22.088Z,0.00
2023-01-21T07:56:31.398Z,0.00
2023-01-21T07:57:39.897Z,0.00
2023-01-21T07:58:43.712Z,0.00
2023-01-21T07:59:47.292Z,0.00
2023-01-21T08:00:52.618Z,0.00
2023-01-21T08:03:30.353Z,0.00
2023-01-21T08:04:34.974Z,0.00
2023-01-21T08:05:52.258Z,0.00
2023-01-21T08:08:29.056Z,0.00
2023-01-21T08:12:13.894Z,0.00
2023-01-21T08:14:52.533Z,0.00
2023-01-21T08:15:59.969Z,0.00
2023-01-21T08:19:50.328Z,0.50
2023-01-21T08:22:19.189Z,0.00
2023-01-21T08:23:32.515Z,0.00
2023-01-21T08:24:38.771Z,0.00
2023-01-21T08:27:12.175Z,0.00
2023-01-21T08:28:27.327Z,0.00
2023-01-21T08:29:31.002Z,0.50
2023-01-21T08:30:52.260Z,0.00
2023-01-21T08:36:09.544Z,0.00
2023-01-21T08:38:34.907Z,0.00
2023-01-21T08:39:53.528Z,0.00
2023-01-21T08:42:25.840Z,0.00
2023-01-21T08:58:51.521Z,0.00
2023-01-21T09:00:07.598Z,0.00
2023-01-21T09:01:17.076Z,0.00
2023-01-21T09:02:24.951Z,0.00
2023-01-21T09:15:45.887Z,0.00
2023-01-21T09:57:09.137Z,0.00
2023-01-21T09:58:28.104Z,0.00
2023-01-21T09:59:37.102Z,0.00
2023-01-21T10:39:08.827Z,0.00
2023-01-21T15:05:15.457Z,0.00
2023-01-21T15:19:01.182Z,0.00
2023-01-21T15:21:31.338Z,0.00
2023-01-21T15:22:35.109Z,0.00
2023-01-21T15:23:48.202Z,0.00
2023-01-21T15:24:52.006Z,0.25
2023-01-21T15:25:54.807Z,0.00
2023-01-21T15:27:00.910Z,0.00
2023-01-21T15:28:11.390Z,0.00
2023-01-21T15:30:36.822Z,0.00
2023-01-21T15:31:41.284Z,0.00
2023-01-21T15:32:46.044Z,0.00
2023-01-21T15:34:00.988Z,0.00
2023-01-21T15:36:36.431Z,0.00
2023-01-21T15:40:32.389Z,0.00
2023-01-21T15:41:37.294Z,0.00
2023-01-21T15:42:48.896Z,0.00
2023-01-21T15:43:53.173Z,0.00
2023-01-21T15:47:43.454Z,0.00
2023-01-21T15:50:07.448Z,0.00
2023-01-21T15:53:35.431Z,0.00
2023-01-21T15:54:38.098Z,0.00
2023-01-21T15:55:41.905Z,0.00
2023-01-21T15:56:50.207Z,0.00
2023-01-21T15:59:27.620Z,0.00
2023-01-21T16:00:33.013Z,0.00
2023-01-21T16:02:59.933Z,0.50
2023-01-21T16:04:05.912Z,1.00
2023-01-21T16:05:10.955Z,0.25
2023-01-21T16:06:23.230Z,0.00
2023-01-21T16:07:33.692Z,0.00
2023-01-21T16:08:36.837Z,0.00
2023-01-21T16:09:42.072Z,0.00
2023-01-21T16:13:26.835Z,0.00
2023-01-21T16:14:31.000Z,0.00
2023-01-21T16:15:39.671Z,0.00
2023-01-21T16:16:54.176Z,0.00
2023-01-21T16:19:18.312Z,0.00
2023-01-21T16:20:34.714Z,0.00
2023-01-21T16:21:37.617Z,0.00
2023-01-21T16:22:40.861Z,0.00
2023-01-21T16:25:07.016Z,0.00
2023-01-21T16:26:10.898Z,0.00
2023-01-21T16:27:14.383Z,0.00
2023-01-21T16:28:19.692Z,0.00
2023-01-21T16:29:26.983Z,0.00
2023-01-21T16:30:30.920Z,0.00
2023-01-21T16:31:34.625Z,0.00
2023-01-21T16:33:59.227Z,0.00
2023-01-21T16:35:03.281Z,0.00
2023-01-21T16:37:41.847Z,0.00
2023-01-21T16:39:00.102Z,0.00
2023-01-21T16:40:07.651Z,0.00
2023-01-21T16:41:13.481Z,0.00
2023-01-21T16:42:17.450Z,0.00
2023-01-21T16:43:21.060Z,0.00
2023-01-21T16:44:24.348Z,0.00
2023-01-21T16:45:38.414Z,0.00
2023-01-21T16:46:42.077Z,0.00
2023-01-21T16:51:57.402Z,0.00
2023-01-21T16:53:03.565Z,0.00
2023-01-21T16:54:06.781Z,0.00
2023-01-21T17:00:36.376Z,0.00
2023-01-21T17:03:01.774Z,0.00
2023-01-21T17:04:05.050Z,0.00
2023-01-21T17:06:28.344Z,0.00
2023-01-21T17:07:36.075Z,0.50
2023-01-21T17:16:37.191Z,0.00
2023-01-21T17:17:41.990Z,0.25
2023-01-21T17:20:21.888Z,0.00
2023-01-21T17:21:32.182Z,0.00
2023-01-21T17:22:44.952Z,0.00
2023-01-21T17:26:38.511Z,0.00
2023-01-21T17:29:02.691Z,0.50
2023-01-21T17:30:06.756Z,0.50
2023-01-21T17:31:12.013Z,0.00
2023-01-21T17:33:39.033Z,0.00
2023-01-21T17:36:05.037Z,0.00
2023-01-21T17:38:31.174Z,0.50
2023-01-21T17:39:49.184Z,0.00
2023-01-21T17:42:22.727Z,0.00
2023-01-21T17:43:33.510Z,0.00
2023-01-21T17:48:45.884Z,0.50
2023-01-21T17:51:19.635Z,0.25
2023-01-21T17:52:23.508Z,0.50
2023-01-21T17:56:19.562Z,0.00
2023-01-21T17:57:29.360Z,0.00
2023-01-21T17:58:42.768Z,0.25
2023-01-21T17:59:49.296Z,0.00
2023-01-21T18:01:06.166Z,0.00
2023-01-21T18:02:22.202Z,0.00
2023-01-21T18:06:15.242Z,0.00
2023-01-21T18:07:26.285Z,0.00
2023-01-21T18:12:36.753Z,0.00
2023-01-21T18:13:45.535Z,0.00
2023-01-21T18:17:39.106Z,0.00
2023-01-21T18:22:35.354Z,0.00
2023-01-21T18:26:22.594Z,0.50
2023-01-21T18:28:51.512Z,0.00
2023-01-21T18:30:01.731Z,0.00
2023-01-21T18:34:00.171Z,0.00
2023-01-21T18:35:04.593Z,0.00
2023-01-21T18:36:08.509Z,0.00
2023-01-21T18:38:44.992Z,0.00
2023-01-21T18:40:01.027Z,0.50
2023-01-21T18:41:05.018Z,0.00
2023-01-21T18:44:51.457Z,0.00
2023-01-21T18:45:58.536Z,0.00
2023-01-21T18:47:04.149Z,0.00
2023-01-21T18:48:17.018Z,0.00
2023-01-21T18:49:26.055Z,0.50
2023-01-21T18:54:33.104Z,0.00
2023-01-21T18:57:09.527Z,0.00
2023-01-21T18:58:19.765Z,0.00
2023-01-21T18:59:24.610Z,0.00
2023-01-21T19:00:27.821Z,0.00
2023-01-21T19:01:33.165Z,0.00
2023-01-21T19:02:36.145Z,0.00
2023-01-21T19:05:03.572Z,0.00
2023-01-21T19:18:07.270Z,1.50
2023-01-21T19:20:43.812Z,1.00
2023-01-21T19:26:06.325Z,0.25
2023-01-21T19:28:37.525Z,1.00
2023-01-21T19:29:48.688Z,0.50
2023-01-21T19:31:00.063Z,0.50
2023-01-21T19:32:03.829Z,1.00
2023-01-21T19:33:07.486Z,0.50
2023-01-21T19:34:12.187Z,0.75
2023-01-21T19:35:15.742Z,0.50
2023-01-21T19:37:48.141Z,0.50
2023-01-21T19:38:53.597Z,0.00
2023-01-21T19:41:25.957Z,0.50
2023-01-21T19:42:37.227Z,1.00
2023-01-21T19:45:18.744Z,0.00
2023-01-21T19:50:28.324Z,0.75
2023-01-21T19:51:32.184Z,0.00
2023-01-21T20:00:41.160Z,0.00
2023-01-21T20:10:10.826Z,0.75
2023-01-21T20:12:40.976Z,1.00
2023-01-21T20:21:55.045Z,0.50
2023-01-21T20:24:25.996Z,0.00
2023-01-21T20:25:29.179Z,0.50
2023-01-21T20:27:56.532Z,1.00
2023-01-21T20:29:00.078Z,0.50
2023-01-21T20:39:31.653Z,1.00
2023-01-21T21:46:39.047Z,1.33
2023-01-21T22:11:56.577Z,2.00
2023-01-21T22:13:00.652Z,1.50
2023-01-21T22:14:06.054Z,1.50
2023-01-21T22:15:17.376Z,1.25
2023-01-21T22:16:22.650Z,2.00
2023-01-21T22:17:26.732Z,2.00
2023-01-21T22:21:12.678Z,2.00
2023-01-21T22:22:21.152Z,2.50
2023-01-21T22:23:43.612Z,2.50
2023-01-21T22:24:49.272Z,2.00
2023-01-21T22:25:54.189Z,2.50
2023-01-21T22:28:26.509Z,3.00
2023-01-21T22:29:29.770Z,2.50
2023-01-21T22:30:33.695Z,3.00
2023-01-21T22:31:37.694Z,2.75
2023-01-21T22:32:43.458Z,2.50
2023-01-21T22:33:56.642Z,3.00
2023-01-21T22:35:13.020Z,3.00
2023-01-21T22:37:38.570Z,3.00
2023-01-21T22:38:42.135Z,3.50
2023-01-21T22:39:45.512Z,3.00
2023-01-21T22:42:12.146Z,3.00
2023-01-21T22:43:15.933Z,3.00
2023-01-21T22:44:19.012Z,3.00
2023-01-21T22:45:22.799Z,3.50
2023-01-21T22:46:26.422Z,4.00
2023-01-21T22:47:30.002Z,4.50
2023-01-21T22:48:37.905Z,4.50
2023-01-21T22:49:43.115Z,3.50
2023-01-21T22:50:47.098Z,3.50
2023-01-21T22:51:51.203Z,4.50
2023-01-21T22:53:07.919Z,4.50
2023-01-21T22:54:10.774Z,3.50
2023-01-21T22:55:14.085Z,4.00
2023-01-21T22:56:17.461Z,4.50
2023-01-21T22:57:20.736Z,4.00
2023-01-21T22:58:24.423Z,4.50
2023-01-21T22:59:37.393Z,4.75
2023-01-21T23:00:40.867Z,5.00
2023-01-21T23:01:44.503Z,4.00
2023-01-21T23:02:48.131Z,3.50
2023-01-21T23:03:51.607Z,4.25
2023-01-21T23:04:54.828Z,4.00
2023-01-21T23:06:00.658Z,4.00
2023-01-21T23:07:05.036Z,3.75
2023-01-21T23:08:21.533Z,4.00
2023-01-21T23:10:48.809Z,4.00
2023-01-21T23:11:58.710Z,3.00
2023-01-21T23:13:08.086Z,3.00
2023-01-21T23:14:11.538Z,3.00
2023-01-21T23:15:14.743Z,3.00
2023-01-21T23:16:18.878Z,3.00
2023-01-21T23:18:43.599Z,3.50
2023-01-21T23:19:49.787Z,3.50
2023-01-21T23:21:00.884Z,3.00
2023-01-21T23:22:09.572Z,3.25
2023-01-21T23:24:34.808Z,3.00
2023-01-21T23:25:38.979Z,3.00
2023-01-21T23:26:43.017Z,3.50
2023-01-21T23:27:49.384Z,4.00
2023-01-21T23:29:04.182Z,3.75
2023-01-21T23:30:10.376Z,3.25
2023-01-21T23:31:15.903Z,3.00
2023-01-21T23:32:21.923Z,3.00
2023-01-21T23:33:25.615Z,3.50
2023-01-21T23:34:29.511Z,3.50
2023-01-21T23:35:34.305Z,3.50
2023-01-21T23:36:37.080Z,3.00
2023-01-21T23:37:46.218Z,3.50
2023-01-21T23:38:55.267Z,3.50
2023-01-21T23:39:58.956Z,3.50
2023-01-21T23:41:02.552Z,4.00
2023-01-21T23:42:05.934Z,3.50
2023-01-21T23:43:18.953Z,3.50
2023-01-21T23:44:26.647Z,3.50
2023-01-21T23:46:34.153Z,3.00
2023-01-21T23:47:37.397Z,3.00
2023-01-21T23:52:48.179Z,3.50
2023-01-21T23:53:51.766Z,3.50
2023-01-21T23:55:01.714Z,3.50
2023-01-21T23:56:07.224Z,3.75
